createdAt,value
2019-02-19T00:02:33.256Z,17.57
2019-02-19T00:05:20.529Z,16.40
2019-02-19T00:08:16.159Z,18.03
2019-02-19T00:33:01.334Z,17.43
2019-02-19T00:35:48.780Z,17.33
2019-02-19T00:48:02.591Z,14.77
2019-02-19T00:50:52.304Z,14.83
2019-02-19T00:53:54.335Z,14.57
2019-02-19T00:59:48.420Z,18.07
2019-02-19T01:08:48.784Z,16.37
2019-02-19T01:11:35.751Z,19.58
2019-02-19T01:14:23.298Z,18.23
2019-02-19T01:29:37.603Z,19.53
2019-02-19T01:32:24.719Z,15.47
2019-02-19T01:38:18.984Z,17.10
2019-02-19T01:41:06.389Z,15.17
2019-02-19T01:43:53.547Z,16.53
2019-02-19T01:46:41.695Z,16.67
2019-02-19T01:49:29.293Z,15.57
2019-02-19T02:04:41.753Z,16.50
2019-02-19T02:07:43.899Z,15.23
2019-02-19T02:10:45.776Z,16.73
2019-02-19T02:16:54.504Z,15.90
2019-02-19T02:19:42.022Z,20.20
2019-02-19T02:22:29.406Z,14.20
2019-02-19T02:28:37.714Z,14.30
2019-02-19T02:31:25.957Z,16.70
2019-02-19T02:34:13.318Z,17.93
2019-02-19T02:40:14.276Z,14.47
2019-02-19T03:04:56.421Z,17.87
2019-02-19T03:07:43.586Z,16.67
2019-02-19T03:13:37.879Z,16.13
2019-02-19T03:16:25.119Z,14.73
2019-02-19T03:31:37.617Z,16.63
2019-02-19T03:34:27.251Z,19.40
2019-02-19T03:37:28.861Z,21.63
2019-02-19T03:40:16.092Z,20.00
2019-02-19T03:43:03.298Z,21.73
2019-02-19T03:45:50.337Z,16.60
2019-02-19T03:48:37.354Z,17.97
2019-02-19T03:51:24.959Z,16.90
2019-02-19T04:00:25.505Z,17.47
2019-02-19T04:03:12.772Z,18.03
2019-02-19T04:06:00.166Z,15.27
2019-02-19T04:15:15.550Z,15.03
2019-02-19T04:18:04.207Z,19.27
2019-02-19T04:24:11.907Z,16.90
2019-02-19T04:26:59.348Z,17.17
2019-02-19T04:29:47.060Z,19.23
2019-02-19T04:32:34.278Z,19.50
2019-02-19T04:51:00.014Z,21.20
2019-02-19T05:00:14.003Z,25.13
2019-02-19T05:03:01.984Z,22.27
2019-02-19T05:05:49.868Z,21.53
2019-02-19T05:08:36.934Z,22.37
2019-02-19T05:11:31.595Z,18.07
2019-02-19T05:14:21.216Z,19.67
2019-02-19T05:17:08.521Z,35.23
2019-02-19T05:19:55.967Z,36.70
2019-02-19T05:22:43.280Z,23.80
2019-02-19T05:25:30.625Z,24.57
2019-02-19T05:28:17.847Z,27.23
2019-02-19T05:31:07.542Z,21.70
2019-02-19T05:33:54.841Z,18.30
2019-02-19T05:36:42.264Z,16.07
2019-02-19T05:42:36.644Z,14.47
2019-02-19T05:45:23.785Z,16.10
2019-02-19T05:48:10.905Z,15.43
2019-02-19T05:50:58.863Z,14.83
2019-02-19T05:53:46.449Z,14.73
2019-02-19T05:56:34.894Z,15.60
2019-02-19T05:59:23.652Z,13.97
2019-02-19T06:02:11.075Z,18.87
2019-02-19T06:04:58.480Z,19.10
2019-02-19T06:07:45.818Z,17.00
2019-02-19T06:10:35.989Z,18.43
2019-02-19T06:16:44.082Z,18.57
2019-02-19T06:22:39.535Z,13.33
2019-02-19T06:25:34.516Z,14.40
2019-02-19T06:28:22.248Z,14.20
2019-02-19T06:34:15.943Z,15.43
2019-02-19T06:37:17.780Z,14.33
2019-02-19T06:40:07.577Z,14.17
2019-02-19T06:42:55.189Z,13.47
2019-02-19T06:45:42.436Z,13.70
2019-02-19T06:51:50.640Z,12.43
2019-02-19T06:54:37.830Z,18.60
2019-02-19T06:57:25.101Z,18.33
2019-02-19T07:00:12.399Z,13.93
2019-02-19T07:03:00.047Z,16.55
2019-02-19T07:05:47.402Z,13.63
2019-02-19T07:08:50.740Z,17.07
2019-02-19T07:11:40.283Z,13.50
2019-02-19T07:14:43.727Z,13.27
2019-02-19T07:20:37.566Z,16.37
2019-02-19T07:23:25.046Z,12.77
2019-02-19T07:26:12.511Z,11.43
2019-02-19T07:28:59.693Z,10.23
2019-02-19T07:31:47.242Z,14.93
2019-02-19T07:34:34.508Z,14.87
2019-02-19T07:37:21.931Z,14.13
2019-02-19T07:40:09.278Z,12.83
2019-02-19T07:42:56.726Z,12.40
2019-02-19T07:45:43.952Z,9.70
2019-02-19T07:48:38.973Z,13.95
2019-02-19T07:51:26.217Z,12.40
2019-02-19T07:54:14.589Z,12.13
2019-02-19T07:57:02.142Z,12.83
2019-02-19T08:00:04.057Z,13.07
2019-02-19T08:02:51.419Z,17.63
2019-02-19T08:05:38.610Z,14.90
2019-02-19T08:11:31.863Z,12.97
2019-02-19T08:14:19.072Z,14.07
2019-02-19T08:17:06.210Z,14.70
2019-02-19T08:19:53.153Z,12.77
2019-02-19T08:22:40.399Z,13.23
2019-02-19T08:25:30.088Z,13.35
2019-02-19T08:31:24.339Z,11.97
2019-02-19T08:34:12.760Z,12.77
2019-02-19T08:37:00.016Z,12.07
2019-02-19T08:39:48.356Z,13.38
2019-02-19T08:42:35.774Z,12.20
2019-02-19T08:45:31.290Z,12.50
2019-02-19T08:48:18.350Z,13.40
2019-02-19T08:51:05.546Z,13.50
2019-02-19T08:53:53.661Z,10.87
2019-02-19T08:56:40.994Z,11.50
2019-02-19T08:59:35.764Z,13.83
2019-02-19T09:17:55.495Z,9.53
2019-02-19T09:20:42.649Z,9.60
2019-02-19T09:23:29.672Z,10.88
2019-02-19T09:26:17.190Z,10.17
2019-02-19T09:29:04.563Z,8.70
2019-02-19T09:32:06.335Z,10.67
2019-02-19T09:34:53.585Z,9.83
2019-02-19T09:37:55.905Z,11.63
2019-02-19T09:40:43.221Z,7.90
2019-02-19T09:46:45.240Z,12.13
2019-02-19T09:49:32.296Z,10.00
2019-02-19T09:52:20.321Z,12.65
2019-02-19T09:55:07.644Z,9.27
2019-02-19T09:58:01.769Z,10.18
2019-02-19T10:00:49.423Z,11.55
2019-02-19T10:03:36.692Z,10.75
2019-02-19T10:06:38.114Z,10.02
2019-02-19T10:12:39.647Z,11.35
2019-02-19T10:15:34.410Z,10.25
2019-02-19T10:18:21.506Z,10.30
2019-02-19T10:24:22.962Z,9.38
2019-02-19T10:27:12.453Z,11.25
2019-02-19T10:36:27.531Z,12.82
2019-02-19T10:39:14.650Z,13.60
2019-02-19T10:42:01.667Z,10.75
2019-02-19T10:44:50.038Z,9.35
2019-02-19T10:47:37.361Z,10.10
2019-02-19T10:50:24.349Z,9.77
2019-02-19T10:53:11.713Z,9.93
2019-02-19T10:55:58.837Z,8.65
2019-02-19T10:58:53.648Z,9.10
2019-02-19T11:01:40.923Z,10.55
2019-02-19T11:04:27.884Z,12.13
2019-02-19T11:07:15.461Z,12.15
2019-02-19T11:10:02.780Z,10.75
2019-02-19T11:19:02.404Z,11.73
2019-02-19T11:21:49.490Z,14.60
2019-02-19T11:24:36.788Z,11.65
2019-02-19T11:27:31.451Z,11.12
2019-02-19T11:30:20.248Z,11.50
2019-02-19T11:33:06.705Z,10.52
2019-02-19T11:35:54.844Z,11.50
2019-02-19T11:41:47.759Z,13.68
2019-02-19T11:47:41.072Z,9.27
2019-02-19T11:50:28.378Z,10.38
2019-02-19T11:53:16.056Z,10.83
2019-02-19T11:56:03.318Z,10.63
2019-02-19T11:58:50.547Z,11.68
2019-02-19T12:01:52.727Z,12.48
2019-02-19T12:04:54.433Z,10.77
2019-02-19T12:07:41.395Z,15.85
2019-02-19T12:10:28.376Z,11.10
2019-02-19T12:13:15.831Z,13.27
2019-02-19T12:16:10.518Z,12.55
2019-02-19T12:18:57.986Z,11.73
2019-02-19T12:21:45.284Z,11.18
2019-02-19T12:24:32.681Z,14.93
2019-02-19T12:30:27.590Z,10.75
2019-02-19T12:36:28.584Z,9.35
2019-02-19T12:39:15.770Z,13.30
2019-02-19T12:42:03.074Z,11.10
2019-02-19T12:44:53.059Z,14.32
2019-02-19T12:47:40.599Z,15.20
2019-02-19T12:50:28.230Z,11.88
2019-02-19T12:56:21.594Z,12.65
2019-02-19T12:59:08.909Z,10.43
2019-02-19T13:01:56.157Z,14.85
2019-02-19T13:07:49.772Z,10.85
2019-02-19T13:10:38.035Z,12.98
2019-02-19T13:13:26.091Z,13.60
2019-02-19T13:16:13.475Z,13.52
2019-02-19T13:19:03.526Z,12.00
2019-02-19T13:21:50.829Z,14.45
2019-02-19T13:24:51.956Z,14.60
2019-02-19T13:27:39.175Z,12.70
2019-02-19T13:39:45.550Z,12.48
2019-02-19T13:58:18.993Z,13.38
2019-02-19T14:07:19.418Z,12.13
2019-02-19T14:10:06.738Z,13.75
2019-02-19T14:12:54.304Z,12.00
2019-02-19T14:15:41.605Z,15.05
2019-02-19T14:18:37.346Z,12.37
2019-02-19T14:21:29.041Z,13.75
2019-02-19T14:24:46.565Z,12.32
2019-02-19T14:27:34.771Z,13.38
2019-02-19T14:37:04.806Z,13.35
2019-02-19T14:40:10.162Z,13.40
2019-02-19T14:46:10.876Z,11.30
2019-02-19T14:52:36.721Z,12.13
2019-02-19T14:55:24.327Z,12.98
2019-02-19T15:01:33.068Z,13.25
2019-02-19T15:07:52.518Z,10.60
2019-02-19T15:17:01.239Z,12.20
2019-02-19T15:19:57.550Z,12.48
2019-02-19T15:22:44.811Z,9.20
2019-02-19T15:25:45.643Z,12.32
2019-02-19T15:28:35.701Z,11.45
2019-02-19T15:31:46.377Z,10.25
2019-02-19T15:34:39.828Z,11.00
2019-02-19T15:37:33.694Z,11.55
2019-02-19T15:43:57.558Z,14.80
2019-02-19T15:46:51.235Z,10.40
2019-02-19T15:52:57.513Z,11.48
2019-02-19T15:56:02.915Z,13.40
2019-02-19T15:58:54.240Z,9.73
2019-02-19T16:01:41.852Z,10.40
2019-02-19T16:10:52.344Z,10.88
2019-02-19T16:13:58.268Z,9.98
2019-02-19T16:17:03.707Z,13.95
2019-02-19T16:23:04.369Z,13.68
2019-02-19T16:25:52.705Z,14.48
2019-02-19T16:31:48.008Z,12.48
2019-02-19T16:35:04.190Z,20.27
2019-02-19T16:37:54.985Z,17.62
2019-02-19T16:40:46.212Z,15.27
2019-02-19T16:43:37.327Z,15.50
2019-02-19T16:46:27.363Z,14.37
2019-02-19T16:49:29.241Z,14.15
2019-02-19T16:52:36.622Z,17.50
2019-02-19T16:55:40.571Z,16.10
2019-02-19T16:58:30.116Z,15.47
2019-02-19T17:08:15.868Z,16.63
2019-02-19T17:14:32.777Z,15.77
2019-02-19T17:17:26.366Z,15.83
2019-02-19T17:20:28.839Z,15.23
2019-02-19T17:23:11.448Z,16.17
2019-02-19T17:29:29.307Z,14.90
2019-02-19T17:35:23.463Z,12.83
2019-02-19T17:41:33.099Z,14.37
2019-02-19T17:44:20.511Z,17.43
2019-02-19T17:47:08.781Z,15.33
2019-02-19T17:50:12.984Z,19.23
2019-02-19T17:53:11.488Z,10.57
2019-02-19T17:56:14.215Z,17.17
2019-02-19T17:59:03.937Z,12.57
2019-02-19T18:01:51.821Z,14.47
2019-02-19T18:04:39.470Z,14.23
2019-02-19T18:07:32.625Z,14.30
2019-02-19T18:10:40.092Z,13.90
2019-02-19T18:13:45.938Z,14.87
2019-02-19T18:16:32.964Z,15.27
2019-02-19T18:19:34.751Z,13.47
2019-02-19T18:25:28.250Z,15.27
2019-02-19T18:31:21.471Z,15.87
2019-02-19T18:34:11.194Z,17.27
2019-02-19T18:36:58.148Z,14.97
2019-02-19T18:42:52.042Z,23.70
2019-02-19T18:48:50.279Z,19.50
2019-02-19T18:54:44.018Z,18.97
2019-02-19T18:57:38.791Z,20.07
2019-02-19T19:00:26.087Z,16.93
2019-02-19T19:09:35.312Z,17.87
2019-02-19T19:12:22.530Z,19.00
2019-02-19T19:15:17.703Z,20.40
2019-02-19T19:21:11.762Z,19.83
2019-02-19T19:23:59.186Z,16.10
2019-02-19T19:26:47.632Z,16.67
2019-02-19T19:29:35.422Z,14.77
2019-02-19T19:32:23.083Z,16.77
2019-02-19T19:35:10.646Z,19.20
2019-02-19T19:38:12.504Z,19.83
2019-02-19T19:40:59.999Z,15.03
2019-02-19T19:43:47.452Z,16.50
2019-02-19T19:46:34.752Z,19.73
2019-02-19T19:55:33.975Z,13.87
2019-02-19T19:58:21.417Z,12.87
2019-02-19T20:01:09.336Z,16.20
2019-02-19T20:03:56.634Z,15.30
2019-02-19T20:06:43.553Z,15.80
2019-02-19T20:09:31.075Z,15.40
2019-02-19T20:15:24.445Z,17.13
2019-02-19T20:18:19.336Z,17.93
2019-02-19T20:21:07.078Z,18.87
2019-02-19T20:27:03.411Z,16.37
2019-02-19T20:29:50.968Z,15.90
2019-02-19T20:32:38.472Z,15.07
2019-02-19T20:35:25.472Z,13.63
2019-02-19T20:38:12.481Z,16.60
2019-02-19T20:40:59.805Z,14.17
2019-02-19T20:43:46.946Z,14.87
2019-02-19T20:46:34.457Z,14.93
2019-02-19T20:49:21.686Z,14.67
2019-02-19T21:10:47.747Z,13.17
2019-02-19T21:13:38.015Z,18.30
2019-02-19T21:22:37.659Z,14.63
2019-02-19T21:25:30.769Z,9.73
2019-02-19T21:28:11.999Z,12.80
2019-02-19T21:34:05.538Z,11.37
2019-02-19T21:36:53.191Z,12.17
2019-02-19T21:39:39.998Z,11.50
2019-02-19T21:48:38.862Z,9.20
2019-02-19T21:51:26.309Z,10.67
2019-02-19T21:54:14.549Z,8.00
2019-02-19T22:00:15.113Z,7.63
2019-02-19T22:03:01.982Z,10.67
2019-02-19T22:05:50.137Z,10.37
2019-02-19T22:08:37.488Z,8.17
2019-02-19T22:14:31.980Z,10.57
2019-02-19T22:17:19.069Z,10.77
2019-02-19T22:20:21.244Z,8.73
2019-02-19T22:23:08.391Z,16.10
2019-02-19T22:25:55.677Z,9.07
2019-02-19T22:28:42.810Z,9.70
2019-02-19T22:31:30.233Z,9.33
2019-02-19T22:34:17.640Z,11.55
2019-02-19T22:40:11.247Z,8.40
2019-02-19T22:43:06.431Z,11.37
2019-02-19T22:46:08.596Z,8.67
2019-02-19T22:52:02.665Z,8.80
2019-02-19T22:54:50.515Z,8.27
2019-02-19T22:57:37.743Z,8.07
2019-02-19T23:10:02.749Z,10.77
2019-02-19T23:12:50.189Z,10.53
2019-02-19T23:18:44.774Z,9.27
2019-02-19T23:21:33.730Z,10.13
2019-02-19T23:24:21.157Z,10.60
2019-02-19T23:27:08.373Z,12.02
2019-02-19T23:29:55.692Z,10.97
2019-02-19T23:32:42.816Z,12.20
2019-02-19T23:35:36.272Z,9.07
2019-02-19T23:38:24.518Z,12.70
2019-02-19T23:41:14.793Z,10.93
2019-02-19T23:44:02.434Z,11.37
2019-02-19T23:47:04.347Z,11.60
2019-02-19T23:49:51.928Z,10.20
2019-02-19T23:55:45.611Z,10.57
2019-02-19T23:58:33.235Z,12.23
